Time,TemperatureF,DewpointF,PressureIn,WindDirection,WindDirectionDegrees,WindSpeedMPH,WindSpeedGustMPH,Humidity,HourlyPrecipIn,Conditions,Clouds,dailyrainin,SoftwareType,DateUTC
2013-06-23 00:01:00,69.1,63.1,30.24,NNE,23,0.4,0.4,81,0.00,,,0.00,WUHU216HW,2013-06-23 04:01:00,
2013-06-23 00:02:00,69.1,63.1,30.24,NNE,23,0.4,0.4,81,0.00,,,0.00,WUHU216HW,2013-06-23 04:02:00,
2013-06-23 00:04:00,69.1,63.1,30.24,NNE,23,0.0,0.4,81,0.00,,,0.00,WUHU216HW,2013-06-23 04:04:00,
2013-06-23 00:09:00,69.1,63.1,30.24,NNE,23,0.0,0.4,81,0.00,,,0.00,WUHU216HW,2013-06-23 04:09:00,
2013-06-23 00:14:00,68.9,62.9,30.24,NNE,23,0.0,0.0,81,0.00,,,0.00,WUHU216HW,2013-06-23 04:14:00,
2013-06-23 00:19:00,68.8,62.7,30.24,NNE,23,0.0,0.0,81,0.00,,,0.00,WUHU216HW,2013-06-23 04:19:00,
2013-06-23 00:24:00,68.8,63.1,30.24,NNE,23,0.0,0.0,82,0.00,,,0.00,WUHU216HW,2013-06-23 04:24:00,
2013-06-23 00:29:00,68.6,63.2,30.24,NNE,23,0.0,0.0,83,0.00,,,0.00,WUHU216HW,2013-06-23 04:29:00,
2013-06-23 00:34:00,68.4,62.7,30.24,North,0,0.0,0.0,82,0.00,,,0.00,WUHU216HW,2013-06-23 04:34:00,
2013-06-23 00:39:00,68.4,62.7,30.25,NNW,338,0.0,0.0,82,0.00,,,0.00,WUHU216HW,2013-06-23 04:39:00,
2013-06-23 00:45:00,68.4,63.1,30.24,NNW,338,0.0,0.0,83,0.00,,,0.00,WUHU216HW,2013-06-23 04:45:00,
2013-06-23 00:50:00,68.2,63.2,30.24,North,0,0.0,0.0,84,0.00,,,0.00,WUHU216HW,2013-06-23 04:50:00,
2013-06-23 00:55:00,68.2,63.2,30.25,North,0,0.0,0.0,84,0.00,,,0.00,WUHU216HW,2013-06-23 04:55:00,
2013-06-23 01:00:00,68.0,62.7,30.24,North,0,0.0,0.0,83,0.00,,,0.00,WUHU216HW,2013-06-23 05:00:00,
2013-06-23 01:05:00,67.9,62.6,30.24,North,0,0.0,0.0,83,0.00,,,0.00,WUHU216HW,2013-06-23 05:05:00,
2013-06-23 01:10:00,67.7,62.4,30.24,North,0,0.0,0.0,83,0.00,,,0.00,WUHU216HW,2013-06-23 05:10:00,
2013-06-23 01:15:00,67.7,62.6,30.24,North,0,0.0,0.0,84,0.00,,,0.00,WUHU216HW,2013-06-23 05:15:00,
2013-06-23 01:20:00,67.7,62.6,30.24,North,0,0.0,0.0,84,0.00,,,0.00,WUHU216HW,2013-06-23 05:20:00,
2013-06-23 01:25:00,67.7,62.6,30.24,North,0,0.0,0.0,84,0.00,,,0.00,WUHU216HW,2013-06-23 05:25:00,
2013-06-23 01:30:00,67.5,62.5,30.24,North,0,0.0,0.0,84,0.00,,,0.00,WUHU216HW,2013-06-23 05:30:00,
2013-06-23 01:35:00,67.5,62.5,30.24,North,0,0.0,0.0,84,0.00,,,0.00,WUHU216HW,2013-06-23 05:35:00,
2013-06-23 01:40:00,67.7,63.0,30.24,NE,45,0.0,0.0,85,0.00,,,0.00,WUHU216HW,2013-06-23 05:40:00,
2013-06-23 01:46:00,67.9,63.6,30.24,NNE,23,1.1,1.1,86,0.00,,,0.00,WUHU216HW,2013-06-23 05:46:00,
2013-06-23 01:51:00,68.0,64.0,30.24,NNE,23,1.1,1.1,87,0.00,,,0.00,WUHU216HW,2013-06-23 05:51:00,
2013-06-23 01:56:00,68.0,64.0,30.23,NE,45,0.7,1.1,87,0.00,,,0.00,WUHU216HW,2013-06-23 05:56:00,
2013-06-23 02:01:00,68.0,64.0,30.23,North,0,1.6,1.8,87,0.00,,,0.00,WUHU216HW,2013-06-23 06:01:00,
2013-06-23 02:06:00,68.0,64.6,30.23,NE,45,1.6,2.0,89,0.00,,,0.00,WUHU216HW,2013-06-23 06:06:00,
2013-06-23 02:11:00,68.0,64.4,30.23,NNE,12,1.2,2.0,88,0.00,,,0.00,WUHU216HW,2013-06-23 06:11:00,
2013-06-23 02:17:00,68.0,64.4,30.23,NNE,23,0.4,1.6,88,0.00,,,0.00,WUHU216HW,2013-06-23 06:17:00,
2013-06-23 02:22:00,68.0,64.0,30.23,West,270,0.0,0.9,87,0.00,,,0.00,WUHU216HW,2013-06-23 06:22:00,
2013-06-23 02:27:00,67.7,63.4,30.23,North,0,0.0,0.4,86,0.00,,,0.00,WUHU216HW,2013-06-23 06:27:00,
2013-06-23 02:32:00,67.7,63.6,30.23,NE,45,1.1,1.1,87,0.00,,,0.00,WUHU216HW,2013-06-23 06:32:00,
2013-06-23 02:37:00,67.5,63.5,30.23,NNE,23,0.7,1.1,87,0.00,,,0.00,WUHU216HW,2013-06-23 06:37:00,
2013-06-23 02:42:00,67.5,63.5,30.23,NNE,23,0.0,1.1,87,0.00,,,0.00,WUHU216HW,2013-06-23 06:42:00,
2013-06-23 02:47:00,67.3,63.3,30.23,West,270,0.0,0.7,87,0.00,,,0.00,WUHU216HW,2013-06-23 06:47:00,
2013-06-23 02:52:00,67.3,63.3,30.23,West,270,0.0,0.0,87,0.00,,,0.00,WUHU216HW,2013-06-23 06:52:00,
2013-06-23 02:57:00,67.0,62.9,30.23,NE,45,0.0,0.0,87,0.00,,,0.00,WUHU216HW,2013-06-23 06:57:00,
2013-06-23 03:02:00,67.0,62.9,30.23,NE,45,0.9,0.9,87,0.00,,,0.00,WUHU216HW,2013-06-23 07:02:00,
2013-06-23 03:07:00,67.0,63.3,30.23,North,0,0.2,0.9,88,0.00,,,0.00,WUHU216HW,2013-06-23 07:07:00,
2013-06-23 03:13:00,67.0,63.3,30.23,North,0,0.9,0.9,88,0.00,,,0.00,WUHU216HW,2013-06-23 07:13:00,
2013-06-23 03:18:00,67.1,63.5,30.23,NE,45,0.4,0.9,88,0.00,,,0.00,WUHU216HW,2013-06-23 07:18:00,
2013-06-23 03:23:00,67.1,64.1,30.23,NNE,25,0.8,0.9,90,0.00,,,0.00,WUHU216HW,2013-06-23 07:23:00,
2013-06-23 03:28:00,67.1,63.7,30.23,North,0,1.1,1.1,89,0.00,,,0.00,WUHU216HW,2013-06-23 07:28:00,
2013-06-23 03:33:00,67.1,63.5,30.23,NNE,23,1.1,1.1,88,0.00,,,0.00,WUHU216HW,2013-06-23 07:33:00,
2013-06-23 03:38:00,67.0,63.3,30.22,NNE,23,0.0,1.1,88,0.00,,,0.00,WUHU216HW,2013-06-23 07:38:00,
2013-06-23 03:43:00,67.0,63.5,30.22,North,8,1.2,1.3,89,0.00,,,0.00,WUHU216HW,2013-06-23 07:43:00,
2013-06-23 03:48:00,67.0,63.9,30.22,NNE,23,1.1,1.3,90,0.00,,,0.00,WUHU216HW,2013-06-23 07:48:00,
2013-06-23 03:53:00,67.0,63.9,30.22,NE,45,0.4,1.1,90,0.00,,,0.00,WUHU216HW,2013-06-23 07:53:00,
2013-06-23 03:58:00,67.0,63.5,30.22,North,0,0.4,1.1,89,0.00,,,0.00,WUHU216HW,2013-06-23 07:58:00,
2013-06-23 04:04:00,66.8,63.4,30.22,North,0,0.7,0.7,89,0.00,,,0.00,WUHU216HW,2013-06-23 08:04:00,
2013-06-23 04:09:00,66.6,63.2,30.22,NNE,23,0.9,0.9,89,0.00,,,0.00,WUHU216HW,2013-06-23 08:09:00,
2013-06-23 04:14:00,66.6,63.2,30.22,NNE,23,0.0,0.9,89,0.00,,,0.00,WUHU216HW,2013-06-23 08:14:00,
2013-06-23 04:19:00,66.4,63.0,30.22,NNE,23,0.0,0.9,89,0.00,,,0.00,WUHU216HW,2013-06-23 08:19:00,
2013-06-23 04:24:00,66.4,62.7,30.21,NNE,23,0.0,0.0,88,0.00,,,0.00,WUHU216HW,2013-06-23 08:24:00,
2013-06-23 04:29:00,66.2,62.6,30.22,North,0,0.0,0.0,88,0.00,,,0.00,WUHU216HW,2013-06-23 08:29:00,
2013-06-23 04:34:00,66.2,62.6,30.21,North,0,0.0,0.0,88,0.00,,,0.00,WUHU216HW,2013-06-23 08:34:00,
2013-06-23 04:39:00,66.1,62.7,30.21,NNE,23,1.1,1.1,89,0.00,,,0.00,WUHU216HW,2013-06-23 08:39:00,
2013-06-23 04:44:00,66.2,63.2,30.21,NNE,23,0.4,1.1,90,0.00,,,0.00,WUHU216HW,2013-06-23 08:44:00,
2013-06-23 04:49:00,66.2,62.8,30.21,North,0,0.0,1.1,89,0.00,,,0.00,WUHU216HW,2013-06-23 08:49:00,
2013-06-23 04:54:00,66.1,62.7,30.22,North,0,0.7,0.7,89,0.00,,,0.00,WUHU216HW,2013-06-23 08:54:00,
2013-06-23 04:59:00,66.2,63.2,30.22,NNE,23,0.4,0.7,90,0.00,,,0.00,WUHU216HW,2013-06-23 08:59:00,
2013-06-23 05:04:00,66.1,63.0,30.22,North,0,0.4,0.7,90,0.00,,,0.00,WUHU216HW,2013-06-23 09:04:00,
2013-06-23 05:09:00,66.1,62.7,30.23,North,0,0.9,0.9,89,0.00,,,0.00,WUHU216HW,2013-06-23 09:09:00,
2013-06-23 05:14:00,65.9,62.6,30.23,NNW,338,0.0,0.9,89,0.00,,,0.00,WUHU216HW,2013-06-23 09:14:00,
2013-06-23 05:20:00,65.9,62.6,30.23,NW,315,1.1,1.1,89,0.00,,,0.00,WUHU216HW,2013-06-23 09:20:00,
2013-06-23 05:25:00,65.9,62.8,30.23,NNW,338,1.1,1.8,90,0.00,,,0.00,WUHU216HW,2013-06-23 09:25:00,
2013-06-23 05:30:00,65.9,62.8,30.23,NNW,338,1.1,1.8,90,0.00,,,0.00,WUHU216HW,2013-06-23 09:30:00,
2013-06-23 05:35:00,65.9,62.8,30.23,North,0,0.0,1.1,90,0.00,,,0.00,WUHU216HW,2013-06-23 09:35:00,
2013-06-23 05:40:00,65.7,62.7,30.23,NNW,338,0.9,0.9,90,0.00,,,0.00,WUHU216HW,2013-06-23 09:40:00,
2013-06-23 05:45:00,65.5,62.2,30.23,NNE,23,1.3,1.3,89,0.00,,,0.00,WUHU216HW,2013-06-23 09:45:00,
2013-06-23 05:50:00,65.5,62.6,30.23,NNE,23,1.1,1.3,90,0.00,,,0.00,WUHU216HW,2013-06-23 09:50:00,
2013-06-23 05:56:00,65.5,62.6,30.23,NNE,23,1.8,1.8,90,0.00,,,0.00,WUHU216HW,2013-06-23 09:56:00,
2013-06-23 06:01:00,65.5,62.6,30.23,North,0,1.3,1.8,90,0.00,,,0.00,WUHU216HW,2013-06-23 10:01:00,
2013-06-23 06:06:00,65.3,62.0,30.23,North,9,1.2,1.3,89,0.00,,,0.00,WUHU216HW,2013-06-23 10:06:00,
2013-06-23 06:11:00,65.3,62.0,30.24,North,0,1.8,1.8,89,0.00,,,0.00,WUHU216HW,2013-06-23 10:11:00,
2013-06-23 06:16:00,65.3,62.4,30.23,North,0,1.8,1.8,90,0.00,,,0.00,WUHU216HW,2013-06-23 10:16:00,
2013-06-23 06:21:00,65.3,62.4,30.24,NNE,23,1.1,1.8,90,0.00,,,0.00,WUHU216HW,2013-06-23 10:21:00,
2013-06-23 06:26:00,65.3,62.4,30.24,NE,45,1.3,1.8,90,0.00,,,0.00,WUHU216HW,2013-06-23 10:26:00,
2013-06-23 06:31:00,65.3,62.4,30.25,North,0,1.8,1.8,90,0.00,,,0.00,WUHU216HW,2013-06-23 10:31:00,
2013-06-23 06:36:00,65.3,62.4,30.25,NE,39,1.2,1.8,90,0.00,,,0.00,WUHU216HW,2013-06-23 10:36:00,
2013-06-23 06:41:00,65.5,62.6,30.25,NNW,338,0.4,1.8,90,0.00,,,0.00,WUHU216HW,2013-06-23 10:41:00,
2013-06-23 06:46:00,65.5,62.6,30.25,North,0,0.9,0.9,90,0.00,,,0.00,WUHU216HW,2013-06-23 10:46:00,
2013-06-23 06:51:00,65.5,62.6,30.25,North,0,0.4,0.9,90,0.00,,,0.00,WUHU216HW,2013-06-23 10:51:00,
2013-06-23 06:57:00,65.9,63.2,30.25,North,0,0.7,0.9,91,0.00,,,0.00,WUHU216HW,2013-06-23 10:57:00,
2013-06-23 07:02:00,65.9,62.8,30.26,North,0,0.7,0.7,90,0.00,,,0.00,WUHU216HW,2013-06-23 11:02:00,
2013-06-23 07:07:00,66.1,63.0,30.26,NNW,338,0.2,0.7,90,0.00,,,0.00,WUHU216HW,2013-06-23 11:07:00,
2013-06-23 07:12:00,66.6,63.8,30.26,North,0,0.9,0.9,91,0.00,,,0.00,WUHU216HW,2013-06-23 11:12:00,
2013-06-23 07:17:00,67.0,64.2,30.26,NNE,23,1.1,1.1,91,0.00,,,0.00,WUHU216HW,2013-06-23 11:17:00,
2013-06-23 07:22:00,67.3,64.5,30.26,NE,36,1.5,1.8,91,0.00,,,0.00,WUHU216HW,2013-06-23 11:22:00,
2013-06-23 07:27:00,67.5,64.4,30.26,NE,45,1.3,1.8,90,0.00,,,0.00,WUHU216HW,2013-06-23 11:27:00,
2013-06-23 07:32:00,67.7,64.6,30.26,NNW,338,3.4,3.4,90,0.00,,,0.00,WUHU216HW,2013-06-23 11:32:00,
2013-06-23 07:37:00,68.0,65.0,30.27,NE,45,3.8,3.8,90,0.00,,,0.00,WUHU216HW,2013-06-23 11:37:00,
2013-06-23 07:42:00,68.2,65.2,30.27,NNE,23,2.7,3.8,90,0.00,,,0.00,WUHU216HW,2013-06-23 11:42:00,
2013-06-23 07:48:00,69.1,65.4,30.27,North,358,1.0,3.8,88,0.00,,,0.00,WUHU216HW,2013-06-23 11:48:00,
2013-06-23 07:53:00,69.1,65.4,30.27,NNW,338,0.0,2.7,88,0.00,,,0.00,WUHU216HW,2013-06-23 11:53:00,
2013-06-23 07:58:00,70.2,66.2,30.27,North,0,1.6,1.6,87,0.00,,,0.00,WUHU216HW,2013-06-23 11:58:00,
2013-06-23 08:03:00,70.7,66.3,30.28,NNE,23,2.5,2.7,86,0.00,,,0.00,WUHU216HW,2013-06-23 12:03:00,
2013-06-23 08:08:00,73.1,69.0,30.28,ENE,68,0.0,2.7,87,0.00,,,0.00,WUHU216HW,2013-06-23 12:08:00,
2013-06-23 08:13:00,74.3,69.6,30.28,ESE,113,0.0,2.5,85,0.00,,,0.00,WUHU216HW,2013-06-23 12:13:00,
2013-06-23 08:18:00,75.1,69.9,30.29,North,0,0.0,0.0,84,0.00,,,0.00,WUHU216HW,2013-06-23 12:18:00,
2013-06-23 08:23:00,76.1,69.9,30.28,NE,45,2.0,2.0,81,0.00,,,0.00,WUHU216HW,2013-06-23 12:23:00,
2013-06-23 08:28:00,76.5,70.3,30.28,NNE,23,0.2,2.0,81,0.00,,,0.00,WUHU216HW,2013-06-23 12:28:00,
2013-06-23 08:33:00,76.9,70.2,30.28,North,0,0.9,2.0,80,0.00,,,0.00,WUHU216HW,2013-06-23 12:33:00,
2013-06-23 08:38:00,76.9,70.2,30.28,NNW,338,0.0,0.9,80,0.00,,,0.00,WUHU216HW,2013-06-23 12:38:00,
2013-06-23 08:43:00,77.8,70.8,30.28,WSW,248,0.7,0.9,79,0.00,,,0.00,WUHU216HW,2013-06-23 12:43:00,
2013-06-23 08:48:00,77.8,70.3,30.28,SW,227,0.3,0.7,78,0.00,,,0.00,WUHU216HW,2013-06-23 12:48:00,
2013-06-23 08:53:00,77.6,70.1,30.29,North,0,0.4,0.7,78,0.00,,,0.00,WUHU216HW,2013-06-23 12:53:00,
2013-06-23 08:58:00,77.2,69.9,30.29,SSE,158,0.9,0.9,78,0.00,,,0.00,WUHU216HW,2013-06-23 12:58:00,
2013-06-23 09:04:00,77.9,70.5,30.29,South,180,1.1,1.3,78,0.00,,,0.00,WUHU216HW,2013-06-23 13:04:00,
2013-06-23 09:09:00,78.7,70.8,30.29,SSE,154,0.7,1.3,77,0.00,,,0.00,WUHU216HW,2013-06-23 13:09:00,
2013-06-23 09:14:00,78.5,70.3,30.29,SSE,158,0.4,1.1,76,0.00,,,0.00,WUHU216HW,2013-06-23 13:14:00,
2013-06-23 09:19:00,78.3,70.1,30.29,SE,135,0.4,0.4,76,0.00,,,0.00,WUHU216HW,2013-06-23 13:19:00,
2013-06-23 09:24:00,78.7,70.8,30.29,ESE,113,0.4,0.7,77,0.00,,,0.00,WUHU216HW,2013-06-23 13:24:00,
2013-06-23 09:29:00,79.7,71.9,30.29,South,180,2.0,2.0,77,0.00,,,0.00,WUHU216HW,2013-06-23 13:29:00,
2013-06-23 09:34:00,80.5,72.2,30.30,ENE,72,0.9,2.0,76,0.00,,,0.00,WUHU216HW,2013-06-23 13:34:00,
2013-06-23 09:39:00,80.6,71.7,30.29,NNW,338,0.4,2.0,74,0.00,,,0.00,WUHU216HW,2013-06-23 13:39:00,
2013-06-23 09:44:00,80.3,71.6,30.29,SSW,203,1.1,2.0,75,0.00,,,0.00,WUHU216HW,2013-06-23 13:44:00,
2013-06-23 09:49:00,80.6,72.0,30.29,SSE,158,1.8,2.0,75,0.00,,,0.00,WUHU216HW,2013-06-23 13:49:00,
2013-06-23 09:54:00,81.4,72.7,30.29,SSE,158,1.7,2.2,75,0.00,,,0.00,WUHU216HW,2013-06-23 13:54:00,
2013-06-23 09:59:00,82.3,73.5,30.29,SE,135,2.2,2.2,75,0.00,,,0.00,WUHU216HW,2013-06-23 13:59:00,
2013-06-23 10:04:00,83.0,73.8,30.29,SSE,158,1.1,2.2,74,0.00,,,0.00,WUHU216HW,2013-06-23 14:04:00,
2013-06-23 10:09:00,84.2,74.3,30.29,NNE,23,0.9,2.2,72,0.00,,,0.00,WUHU216HW,2013-06-23 14:09:00,
2013-06-23 10:14:00,83.5,72.7,30.29,SE,135,0.9,1.1,70,0.00,,,0.00,WUHU216HW,2013-06-23 14:14:00,
2013-06-23 10:19:00,83.7,73.3,30.29,WSW,248,2.2,2.2,71,0.00,,,0.00,WUHU216HW,2013-06-23 14:19:00,
2013-06-23 10:24:00,84.2,73.4,30.29,SW,225,0.7,2.2,70,0.00,,,0.00,WUHU216HW,2013-06-23 14:24:00,
2013-06-23 10:29:00,84.4,73.6,30.29,SE,135,0.4,2.2,70,0.00,,,0.00,WUHU216HW,2013-06-23 14:29:00,
2013-06-23 10:35:00,84.2,72.5,30.29,WSW,248,4.0,4.0,68,0.00,,,0.00,WUHU216HW,2013-06-23 14:35:00,
2013-06-23 10:40:00,85.1,74.3,30.29,South,180,1.6,4.0,70,0.00,,,0.00,WUHU216HW,2013-06-23 14:40:00,
2013-06-23 10:45:00,85.7,73.0,30.28,ESE,113,2.5,2.5,66,0.00,,,0.00,WUHU216HW,2013-06-23 14:45:00,
2013-06-23 10:50:00,85.1,72.0,30.28,NE,45,2.0,2.5,65,0.00,,,0.00,WUHU216HW,2013-06-23 14:50:00,
2013-06-23 10:55:00,84.6,72.0,30.28,NE,41,1.7,2.5,66,0.00,,,0.00,WUHU216HW,2013-06-23 14:55:00,
2013-06-23 11:00:00,84.6,72.0,30.28,WNW,293,1.8,2.0,66,0.00,,,0.00,WUHU216HW,2013-06-23 15:00:00,
2013-06-23 11:05:00,86.6,73.9,30.28,SW,225,2.5,2.7,66,0.00,,,0.00,WUHU216HW,2013-06-23 15:05:00,
2013-06-23 11:10:00,87.3,74.1,30.28,SW,230,1.2,2.7,65,0.00,,,0.00,WUHU216HW,2013-06-23 15:10:00,
2013-06-23 11:15:00,87.5,73.8,30.28,SSE,158,0.4,2.5,64,0.00,,,0.00,WUHU216HW,2013-06-23 15:15:00,
2013-06-23 11:21:00,87.1,72.5,30.28,WSW,248,3.4,3.4,62,0.00,,,0.00,WUHU216HW,2013-06-23 15:21:00,
2013-06-23 11:26:00,87.5,73.8,30.28,SSW,203,1.1,3.4,64,0.00,,,0.00,WUHU216HW,2013-06-23 15:26:00,
2013-06-23 11:31:00,88.2,74.1,30.29,ESE,113,0.4,3.4,63,0.00,,,0.00,WUHU216HW,2013-06-23 15:31:00,
2013-06-23 11:36:00,88.4,73.8,30.29,SW,225,1.8,1.8,62,0.00,,,0.00,WUHU216HW,2013-06-23 15:36:00,
2013-06-23 11:41:00,88.6,74.3,30.29,SW,225,1.6,1.8,63,0.00,,,0.00,WUHU216HW,2013-06-23 15:41:00,
2013-06-23 11:46:00,88.9,74.3,30.29,South,180,2.9,2.9,62,0.00,,,0.00,WUHU216HW,2013-06-23 15:46:00,
2013-06-23 11:51:00,89.6,74.0,30.28,West,269,2.2,2.9,60,0.00,,,0.00,WUHU216HW,2013-06-23 15:51:00,
2013-06-23 11:56:00,89.5,73.8,30.28,WSW,248,1.0,2.9,60,0.00,,,0.00,WUHU216HW,2013-06-23 15:56:00,
2013-06-23 12:01:00,88.9,72.8,30.28,NW,315,0.9,1.8,59,0.00,,,0.00,WUHU216HW,2013-06-23 16:01:00,
2013-06-23 12:07:00,88.2,72.2,30.29,WSW,248,1.1,1.1,59,0.00,,,0.00,WUHU216HW,2013-06-23 16:07:00,
2013-06-23 12:12:00,88.0,72.6,30.29,ESE,113,0.9,1.1,60,0.00,,,0.00,WUHU216HW,2013-06-23 16:12:00,
2013-06-23 12:17:00,88.7,73.2,30.28,WNW,293,1.8,1.8,60,0.00,,,0.00,WUHU216HW,2013-06-23 16:17:00,
2013-06-23 12:22:00,89.3,73.6,30.28,West,270,0.4,1.8,60,0.00,,,0.00,WUHU216HW,2013-06-23 16:22:00,
2013-06-23 12:27:00,89.6,73.4,30.28,SW,225,2.9,2.9,59,0.00,,,0.00,WUHU216HW,2013-06-23 16:27:00,
2013-06-23 12:32:00,89.3,72.5,30.28,WSW,248,4.0,4.0,58,0.00,,,0.00,WUHU216HW,2013-06-23 16:32:00,
2013-06-23 12:37:00,88.2,71.7,30.28,West,270,2.5,4.0,58,0.00,,,0.00,WUHU216HW,2013-06-23 16:37:00,
2013-06-23 12:42:00,87.5,70.9,30.27,WSW,248,3.1,4.0,58,0.00,,,0.00,WUHU216HW,2013-06-23 16:42:00,
2013-06-23 12:47:00,87.1,71.6,30.27,WSW,248,0.7,3.1,60,0.00,,,0.00,WUHU216HW,2013-06-23 16:47:00,
2013-06-23 12:52:00,87.5,72.5,30.27,SE,135,1.3,3.1,61,0.00,,,0.00,WUHU216HW,2013-06-23 16:52:00,
2013-06-23 12:57:00,88.4,73.3,30.27,SSW,203,1.8,1.8,61,0.00,,,0.00,WUHU216HW,2013-06-23 16:57:00,
2013-06-23 12:58:00,88.4,73.3,30.27,SSW,203,1.8,1.8,61,0.00,,,0.00,WUHU216HW,2013-06-23 16:58:00,
2013-06-23 13:03:00,89.8,74.2,30.27,SW,225,2.5,2.5,60,0.00,,,0.00,WUHU216HW,2013-06-23 17:03:00,
2013-06-23 13:08:00,90.0,70.6,30.27,East,100,1.2,2.5,53,0.00,,,0.00,WUHU216HW,2013-06-23 17:08:00,
2013-06-23 13:13:00,89.8,72.6,30.27,WSW,248,3.4,3.4,57,0.00,,,0.00,WUHU216HW,2013-06-23 17:13:00,
2013-06-23 13:18:00,89.8,72.6,30.26,WNW,293,1.8,3.4,57,0.00,,,0.00,WUHU216HW,2013-06-23 17:18:00,
2013-06-23 13:23:00,88.7,71.0,30.26,SW,225,2.2,3.4,56,0.00,,,0.00,WUHU216HW,2013-06-23 17:23:00,
2013-06-23 13:29:00,86.8,69.7,30.26,NE,45,1.1,2.2,57,0.00,,,0.00,WUHU216HW,2013-06-23 17:29:00,
2013-06-23 13:34:00,86.6,71.1,30.25,North,0,1.6,2.2,60,0.00,,,0.00,WUHU216HW,2013-06-23 17:34:00,
2013-06-23 13:39:00,86.6,71.1,30.25,North,0,1.6,1.6,60,0.00,,,0.00,WUHU216HW,2013-06-23 17:39:00,
2013-06-23 13:44:00,86.6,71.1,30.25,NW,315,1.5,2.0,60,0.00,,,0.00,WUHU216HW,2013-06-23 17:44:00,
2013-06-23 13:49:00,86.9,71.9,30.25,SE,135,1.3,2.0,61,0.00,,,0.00,WUHU216HW,2013-06-23 17:49:00,
2013-06-23 13:54:00,87.8,71.8,30.25,NW,315,1.6,1.6,59,0.00,,,0.00,WUHU216HW,2013-06-23 17:54:00,
2013-06-23 13:59:00,88.2,71.7,30.25,WNW,302,2.3,2.5,58,0.00,,,0.00,WUHU216HW,2013-06-23 17:59:00,
2013-06-23 14:04:00,88.9,72.8,30.24,WSW,248,4.0,4.0,59,0.00,,,0.00,WUHU216HW,2013-06-23 18:04:00,
2013-06-23 14:09:00,89.8,73.6,30.25,West,270,1.1,4.0,59,0.00,,,0.00,WUHU216HW,2013-06-23 18:09:00,
2013-06-23 14:14:00,90.0,71.1,30.24,South,180,0.9,4.0,54,0.00,,,0.00,WUHU216HW,2013-06-23 18:14:00,
2013-06-23 14:19:00,89.6,72.4,30.24,SE,135,0.7,1.1,57,0.00,,,0.00,WUHU216HW,2013-06-23 18:19:00,
2013-06-23 14:24:00,88.7,71.6,30.24,ESE,113,0.4,1.1,57,0.00,,,0.00,WUHU216HW,2013-06-23 18:24:00,
2013-06-23 14:29:00,88.6,71.9,30.24,South,180,1.8,1.8,58,0.00,,,0.00,WUHU216HW,2013-06-23 18:29:00,
2013-06-23 14:34:00,88.2,71.7,30.23,ESE,113,0.4,1.8,58,0.00,,,0.00,WUHU216HW,2013-06-23 18:34:00,
2013-06-23 14:39:00,87.8,70.7,30.23,ESE,113,1.8,1.8,57,0.00,,,0.00,WUHU216HW,2013-06-23 18:39:00,
2013-06-23 14:44:00,88.2,71.1,30.23,South,180,2.9,2.9,57,0.00,,,0.00,WUHU216HW,2013-06-23 18:44:00,
2013-06-23 14:49:00,88.7,70.5,30.23,NE,45,2.2,2.9,55,0.00,,,0.00,WUHU216HW,2013-06-23 18:49:00,
2013-06-23 14:54:00,88.9,70.7,30.23,NE,45,3.4,3.4,55,0.00,,,0.00,WUHU216HW,2013-06-23 18:54:00,
2013-06-23 14:59:00,89.1,71.9,30.22,SSE,158,1.1,3.4,57,0.00,,,0.00,WUHU216HW,2013-06-23 18:59:00,
2013-06-23 15:04:00,90.0,72.2,30.22,SE,139,0.5,3.4,56,0.00,,,0.00,WUHU216HW,2013-06-23 19:04:00,
2013-06-23 15:09:00,90.2,71.7,30.21,ESE,113,1.8,1.8,55,0.00,,,0.00,WUHU216HW,2013-06-23 19:09:00,
2013-06-23 15:14:00,89.6,71.8,30.21,South,180,4.5,4.7,56,0.00,,,0.00,WUHU216HW,2013-06-23 19:14:00,
2013-06-23 15:19:00,88.6,70.3,30.21,SSE,158,2.2,4.7,55,0.00,,,0.00,WUHU216HW,2013-06-23 19:19:00,
2013-06-23 15:24:00,89.3,72.0,30.21,WSW,248,3.4,4.5,57,0.00,,,0.00,WUHU216HW,2013-06-23 19:24:00,
2013-06-23 15:29:00,90.2,72.8,30.21,SSW,203,1.8,3.4,57,0.00,,,0.00,WUHU216HW,2013-06-23 19:29:00,
2013-06-23 15:34:00,91.3,73.3,30.21,SSE,158,2.9,3.4,56,0.00,,,0.00,WUHU216HW,2013-06-23 19:34:00,
2013-06-23 15:39:00,91.8,72.7,30.20,South,180,2.5,2.9,54,0.00,,,0.00,WUHU216HW,2013-06-23 19:39:00,
2013-06-23 15:44:00,90.7,71.7,30.20,SSE,160,0.8,2.9,54,0.00,,,0.00,WUHU216HW,2013-06-23 19:44:00,
2013-06-23 15:50:00,89.6,71.3,30.20,ENE,68,0.9,2.5,55,0.00,,,0.00,WUHU216HW,2013-06-23 19:50:00,
2013-06-23 15:54:00,89.1,71.4,30.20,SE,135,0.0,1.6,56,0.00,,,0.00,WUHU216HW,2013-06-23 19:54:00,
2013-06-23 15:59:00,88.9,71.7,30.20,SE,135,0.4,0.9,57,0.00,,,0.00,WUHU216HW,2013-06-23 19:59:00,
2013-06-23 16:04:00,89.3,72.5,30.20,South,180,3.6,3.6,58,0.00,,,0.00,WUHU216HW,2013-06-23 20:04:00,
2013-06-23 16:09:00,90.0,72.7,30.20,SSW,203,1.1,3.6,57,0.00,,,0.00,WUHU216HW,2013-06-23 20:09:00,
2013-06-23 16:15:00,90.7,73.4,30.20,SSE,158,4.7,4.7,57,0.00,,,0.00,WUHU216HW,2013-06-23 20:15:00,
2013-06-23 16:20:00,90.4,70.8,30.20,SSW,201,2.2,4.7,53,0.00,,,0.00,WUHU216HW,2013-06-23 20:20:00,
2013-06-23 16:25:00,90.2,71.2,30.20,NE,45,4.7,4.7,54,0.00,,,0.00,WUHU216HW,2013-06-23 20:25:00,
2013-06-23 16:30:00,90.0,71.1,30.20,SSE,158,2.2,4.7,54,0.00,,,0.00,WUHU216HW,2013-06-23 20:30:00,
2013-06-23 16:35:00,89.6,71.8,30.20,SE,135,1.8,4.7,56,0.00,,,0.00,WUHU216HW,2013-06-23 20:35:00,
2013-06-23 16:40:00,89.1,71.9,30.20,SSE,158,0.7,2.5,57,0.00,,,0.00,WUHU216HW,2013-06-23 20:40:00,
2013-06-23 16:45:00,88.0,71.5,30.20,ESE,113,1.1,1.8,58,0.00,,,0.00,WUHU216HW,2013-06-23 20:45:00,
2013-06-23 16:50:00,87.5,71.5,30.20,ESE,113,1.1,1.1,59,0.00,,,0.00,WUHU216HW,2013-06-23 20:50:00,
2013-06-23 16:55:00,88.0,72.6,30.20,ENE,68,0.4,1.1,60,0.00,,,0.00,WUHU216HW,2013-06-23 20:55:00,
2013-06-23 17:00:00,88.7,73.2,30.20,South,180,0.7,0.7,60,0.00,,,0.00,WUHU216HW,2013-06-23 21:00:00,
2013-06-23 17:05:00,88.6,73.0,30.20,ESE,113,0.2,0.7,60,0.00,,,0.00,WUHU216HW,2013-06-23 21:05:00,
2013-06-23 17:10:00,88.6,73.4,30.20,SW,225,1.8,1.8,61,0.00,,,0.00,WUHU216HW,2013-06-23 21:10:00,
2013-06-23 17:15:00,88.6,73.0,30.20,SW,225,1.8,1.8,60,0.00,,,0.00,WUHU216HW,2013-06-23 21:15:00,
2013-06-23 17:20:00,89.1,73.5,30.20,ENE,68,2.5,2.5,60,0.00,,,0.00,WUHU216HW,2013-06-23 21:20:00,
2013-06-23 17:25:00,89.3,72.5,30.20,SE,135,3.4,3.4,58,0.00,,,0.00,WUHU216HW,2013-06-23 21:25:00,
2013-06-23 17:30:00,88.7,72.1,30.19,South,180,2.5,3.4,58,0.00,,,0.00,WUHU216HW,2013-06-23 21:30:00,
2013-06-23 17:35:00,87.5,70.9,30.19,SSE,158,2.5,3.4,58,0.00,,,0.00,WUHU216HW,2013-06-23 21:35:00,
2013-06-23 17:40:00,87.8,71.8,30.19,SSE,158,2.3,2.5,59,0.00,,,0.00,WUHU216HW,2013-06-23 21:40:00,
2013-06-23 17:45:00,87.8,71.8,30.19,SSE,158,1.8,2.5,59,0.00,,,0.00,WUHU216HW,2013-06-23 21:45:00,
2013-06-23 17:50:00,87.7,71.1,30.19,ESE,113,0.4,1.8,58,0.00,,,0.00,WUHU216HW,2013-06-23 21:50:00,
2013-06-23 17:55:00,87.3,71.3,30.19,SE,135,4.3,4.3,59,0.00,,,0.00,WUHU216HW,2013-06-23 21:55:00,
2013-06-23 18:00:00,86.8,71.3,30.19,South,180,1.8,4.3,60,0.00,,,0.00,WUHU216HW,2013-06-23 22:00:00,
2013-06-23 18:05:00,86.0,71.0,30.19,SSE,165,1.0,4.3,61,0.00,,,0.00,WUHU216HW,2013-06-23 22:05:00,
2013-06-23 18:10:00,86.2,71.2,30.19,ESE,113,0.7,1.8,61,0.00,,,0.00,WUHU216HW,2013-06-23 22:10:00,
2013-06-23 18:15:00,86.6,71.6,30.19,East,90,0.4,0.9,61,0.00,,,0.00,WUHU216HW,2013-06-23 22:15:00,
2013-06-23 18:20:00,87.5,72.0,30.19,ESE,116,2.1,2.2,60,0.00,,,0.00,WUHU216HW,2013-06-23 22:20:00,
2013-06-23 18:25:00,87.1,71.1,30.20,ENE,68,4.7,4.7,59,0.00,,,0.00,WUHU216HW,2013-06-23 22:25:00,
2013-06-23 18:30:00,86.0,70.6,30.20,SE,130,4.1,4.7,60,0.00,,,0.00,WUHU216HW,2013-06-23 22:30:00,
2013-06-23 18:35:00,85.1,70.2,30.20,SE,135,2.7,4.7,61,0.00,,,0.00,WUHU216HW,2013-06-23 22:35:00,
2013-06-23 18:40:00,84.2,69.8,30.20,East,90,2.0,4.0,62,0.00,,,0.00,WUHU216HW,2013-06-23 22:40:00,
2013-06-23 18:45:00,81.7,68.3,30.21,SSE,158,6.9,6.9,64,0.00,,,0.00,WUHU216HW,2013-06-23 22:45:00,
2013-06-23 18:50:00,81.7,68.3,30.22,SSE,158,6.9,6.9,64,0.00,,,0.00,WUHU216HW,2013-06-23 22:50:00,
2013-06-23 18:55:00,78.1,66.7,30.22,East,90,11.9,11.9,68,0.00,,,0.00,WUHU216HW,2013-06-23 22:55:00,
2013-06-23 19:00:00,76.1,65.3,30.22,East,97,11.7,11.9,69,0.00,,,0.00,WUHU216HW,2013-06-23 23:00:00,
2013-06-23 19:05:00,75.8,65.7,30.23,SSE,158,9.8,11.9,71,0.00,,,0.00,WUHU216HW,2013-06-23 23:05:00,
2013-06-23 19:10:00,74.9,64.9,30.23,SSE,158,3.1,10.5,71,0.02,,,0.02,WUHU216HW,2013-06-23 23:10:00,
2013-06-23 19:15:00,73.4,65.8,30.22,SSE,158,4.5,9.8,77,0.06,,,0.06,WUHU216HW,2013-06-23 23:15:00,
2013-06-23 19:20:00,72.9,64.9,30.23,South,170,3.6,4.7,76,0.06,,,0.06,WUHU216HW,2013-06-23 23:20:00,
2013-06-23 19:25:00,72.7,65.1,30.22,ESE,113,4.7,4.7,77,0.09,,,0.09,WUHU216HW,2013-06-23 23:25:00,
2013-06-23 19:30:00,72.4,64.7,30.22,South,180,4.3,4.7,77,0.13,,,0.13,WUHU216HW,2013-06-23 23:30:00,
2013-06-23 19:35:00,72.4,64.7,30.23,WSW,248,2.5,4.7,77,0.15,,,0.15,WUHU216HW,2013-06-23 23:35:00,
2013-06-23 19:40:00,72.2,65.4,30.23,WSW,248,3.1,4.3,79,0.16,,,0.16,WUHU216HW,2013-06-23 23:40:00,
2013-06-23 19:45:00,72.0,65.5,30.23,WSW,248,2.0,3.1,80,0.19,,,0.19,WUHU216HW,2013-06-23 23:45:00,
2013-06-23 19:51:00,71.8,65.3,30.22,SE,135,1.6,2.0,80,0.24,,,0.24,WUHU216HW,2013-06-23 23:51:00,
2013-06-23 19:56:00,71.6,65.5,30.22,ESE,123,1.0,2.0,81,0.26,,,0.26,WUHU216HW,2013-06-23 23:56:00,
2013-06-23 20:01:00,71.6,65.2,30.22,ENE,68,0.0,1.6,80,0.26,,,0.26,WUHU216HW,2013-06-24 00:01:00,
2013-06-23 20:06:00,71.6,66.5,30.22,NE,45,0.4,1.1,84,0.27,,,0.27,WUHU216HW,2013-06-24 00:06:00,
2013-06-23 20:10:00,71.5,66.0,30.23,North,0,0.9,1.1,83,0.26,,,0.28,WUHU216HW,2013-06-24 00:10:00,
2013-06-23 20:16:00,71.5,66.0,30.22,North,0,0.4,1.1,83,0.22,,,0.28,WUHU216HW,2013-06-24 00:16:00,
2013-06-23 20:21:00,71.3,66.5,30.23,NNE,27,1.0,1.6,85,0.22,,,0.28,WUHU216HW,2013-06-24 00:21:00,
2013-06-23 20:26:00,71.1,66.7,30.23,NNE,30,1.4,1.8,86,0.19,,,0.28,WUHU216HW,2013-06-24 00:26:00,
2013-06-23 20:31:00,70.9,66.2,30.23,NNE,14,0.9,1.8,85,0.15,,,0.28,WUHU216HW,2013-06-24 00:31:00,
2013-06-23 20:36:00,70.9,66.2,30.23,North,0,0.7,1.1,85,0.13,,,0.28,WUHU216HW,2013-06-24 00:36:00,
2013-06-23 20:41:00,70.9,66.9,30.24,NNE,23,1.8,1.8,87,0.12,,,0.28,WUHU216HW,2013-06-24 00:41:00,
2013-06-23 20:46:00,70.9,67.1,30.24,North,0,2.5,3.1,88,0.09,,,0.28,WUHU216HW,2013-06-24 00:46:00,
2013-06-23 20:51:00,70.7,66.7,30.23,North,0,1.7,3.1,87,0.04,,,0.28,WUHU216HW,2013-06-24 00:51:00,
2013-06-23 20:56:00,70.7,67.0,30.23,ENE,59,0.5,2.5,88,0.02,,,0.28,WUHU216HW,2013-06-24 00:56:00,
2013-06-23 21:01:00,70.6,66.5,30.24,NNE,23,1.8,1.8,87,0.02,,,0.28,WUHU216HW,2013-06-24 01:01:00,
2013-06-23 21:06:00,70.6,66.8,30.24,North,0,2.2,2.2,88,0.01,,,0.28,WUHU216HW,2013-06-24 01:06:00,
2013-06-23 21:11:00,70.6,67.1,30.24,North,0,1.8,2.2,89,0.00,,,0.28,WUHU216HW,2013-06-24 01:11:00,
2013-06-23 21:16:00,70.6,66.8,30.23,North,0,1.6,2.2,88,0.00,,,0.28,WUHU216HW,2013-06-24 01:16:00,
2013-06-23 21:21:00,70.4,66.6,30.24,North,0,1.3,1.8,88,0.00,,,0.28,WUHU216HW,2013-06-24 01:21:00,
2013-06-23 21:26:00,70.4,66.6,30.24,North,0,0.9,1.6,88,0.00,,,0.28,WUHU216HW,2013-06-24 01:26:00,
2013-06-23 21:31:00,70.4,66.6,30.24,North,0,1.1,1.1,88,0.00,,,0.28,WUHU216HW,2013-06-24 01:31:00,
2013-06-23 21:36:00,70.2,66.4,30.24,ENE,68,0.4,1.1,88,0.00,,,0.28,WUHU216HW,2013-06-24 01:36:00,
2013-06-23 21:41:00,70.2,66.4,30.24,NNE,23,0.4,1.1,88,0.00,,,0.28,WUHU216HW,2013-06-24 01:41:00,
2013-06-23 21:46:00,70.0,66.2,30.24,NNE,23,0.8,0.9,88,0.00,,,0.28,WUHU216HW,2013-06-24 01:46:00,
2013-06-23 21:51:00,70.0,66.2,30.24,NE,45,0.2,0.9,88,0.00,,,0.28,WUHU216HW,2013-06-24 01:51:00,
2013-06-23 21:56:00,69.8,66.1,30.24,NE,45,0.0,0.7,88,0.00,,,0.28,WUHU216HW,2013-06-24 01:56:00,
2013-06-23 22:01:00,69.8,66.1,30.24,ENE,68,0.7,0.7,88,0.00,,,0.28,WUHU216HW,2013-06-24 02:01:00,
2013-06-23 22:06:00,69.7,65.9,30.25,NE,50,0.4,0.7,88,0.00,,,0.28,WUHU216HW,2013-06-24 02:06:00,
2013-06-23 22:11:00,69.7,65.9,30.25,NW,315,0.4,0.7,88,0.00,,,0.28,WUHU216HW,2013-06-24 02:11:00,
2013-06-23 22:16:00,69.5,65.7,30.25,South,180,0.4,0.4,88,0.00,,,0.28,WUHU216HW,2013-06-24 02:16:00,
2013-06-23 22:21:00,69.5,65.7,30.26,SE,135,0.0,0.4,88,0.00,,,0.28,WUHU216HW,2013-06-24 02:21:00,
2013-06-23 22:26:00,69.3,65.6,30.25,SE,135,0.0,0.4,88,0.00,,,0.28,WUHU216HW,2013-06-24 02:26:00,
2013-06-23 22:31:00,69.3,65.6,30.26,SE,135,0.0,0.0,88,0.00,,,0.28,WUHU216HW,2013-06-24 02:31:00,
2013-06-23 22:36:00,69.3,65.6,30.26,SSE,158,0.0,0.0,88,0.00,,,0.28,WUHU216HW,2013-06-24 02:36:00,
2013-06-23 22:41:00,69.1,65.4,30.26,NE,45,0.0,0.0,88,0.00,,,0.28,WUHU216HW,2013-06-24 02:41:00,
2013-06-23 22:46:00,69.1,65.4,30.26,NNE,23,1.1,1.1,88,0.00,,,0.28,WUHU216HW,2013-06-24 02:46:00,
2013-06-23 22:51:00,69.1,65.7,30.25,ENE,68,0.4,1.1,89,0.00,,,0.28,WUHU216HW,2013-06-24 02:51:00,
2013-06-23 22:56:00,69.1,65.4,30.25,NNE,23,0.4,1.1,88,0.00,,,0.28,WUHU216HW,2013-06-24 02:56:00,
2013-06-23 23:01:00,69.1,65.4,30.25,NNE,23,0.0,0.4,88,0.00,,,0.28,WUHU216HW,2013-06-24 03:01:00,
2013-06-23 23:06:00,68.9,65.3,30.25,North,0,0.7,0.7,88,0.00,,,0.28,WUHU216HW,2013-06-24 03:06:00,
2013-06-23 23:11:00,69.1,65.4,30.26,North,0,0.4,0.7,88,0.00,,,0.28,WUHU216HW,2013-06-24 03:11:00,
2013-06-23 23:16:00,69.1,65.7,30.26,NE,45,0.7,0.7,89,0.00,,,0.28,WUHU216HW,2013-06-24 03:16:00,
2013-06-23 23:21:00,68.9,65.3,30.26,NE,45,0.7,0.7,88,0.00,,,0.28,WUHU216HW,2013-06-24 03:21:00,
2013-06-23 23:26:00,68.9,65.5,30.26,NNE,23,0.3,0.7,89,0.00,,,0.28,WUHU216HW,2013-06-24 03:26:00,
2013-06-23 23:31:00,68.9,65.5,30.26,NNE,23,0.0,0.7,89,0.00,,,0.28,WUHU216HW,2013-06-24 03:31:00,
2013-06-23 23:36:00,68.9,65.5,30.26,North,0,0.0,0.4,89,0.00,,,0.28,WUHU216HW,2013-06-24 03:36:00,
2013-06-23 23:41:00,68.9,65.5,30.27,North,0,0.4,0.7,89,0.00,,,0.28,WUHU216HW,2013-06-24 03:41:00,
2013-06-23 23:46:00,68.8,65.3,30.27,North,0,0.0,0.7,89,0.00,,,0.28,WUHU216HW,2013-06-24 03:46:00,
2013-06-23 23:51:00,68.8,65.3,30.27,NNW,338,0.0,0.4,89,0.00,,,0.28,WUHU216HW,2013-06-24 03:51:00,
2013-06-23 23:56:00,68.8,65.3,30.27,NNW,338,0.4,0.4,89,0.00,,,0.28,WUHU216HW,2013-06-24 03:56:00,